createdAt,value
2022-11-02T00:00:48.873Z,15.71
2022-11-02T00:03:16.564Z,15.33
2022-11-02T00:05:44.290Z,15.53
2022-11-02T00:08:11.975Z,15.13
2022-11-02T00:10:39.624Z,15.60
2022-11-02T00:13:07.701Z,15.44
2022-11-02T00:15:37.379Z,15.53
2022-11-02T00:18:09.045Z,15.46
2022-11-02T00:20:36.911Z,15.80
2022-11-02T00:23:06.420Z,15.51
2022-11-02T00:25:34.932Z,15.45
2022-11-02T00:28:02.655Z,15.51
2022-11-02T00:30:30.429Z,15.76
2022-11-02T00:32:58.102Z,15.48
2022-11-02T00:35:27.103Z,15.40
2022-11-02T00:37:54.769Z,15.59
2022-11-02T00:40:22.594Z,15.41
2022-11-02T00:42:50.272Z,14.87
2022-11-02T00:45:18.471Z,15.13
2022-11-02T00:47:46.119Z,15.35
2022-11-02T00:50:13.810Z,15.16
2022-11-02T00:52:42.838Z,15.22
2022-11-02T00:55:11.896Z,15.20
2022-11-02T00:57:40.163Z,15.38
2022-11-02T01:00:10.184Z,15.32
2022-11-02T01:02:38.044Z,15.34
2022-11-02T01:05:06.690Z,15.58
2022-11-02T01:07:34.410Z,15.30
2022-11-02T01:10:03.428Z,15.40
2022-11-02T01:12:31.115Z,15.47
2022-11-02T01:14:58.774Z,15.12
2022-11-02T01:17:26.559Z,15.34
2022-11-02T01:19:54.310Z,15.07
2022-11-02T01:22:21.931Z,15.17
2022-11-02T01:24:49.619Z,15.35
2022-11-02T01:27:18.642Z,15.11
2022-11-02T01:29:46.291Z,15.12
2022-11-02T01:32:14.055Z,15.13
2022-11-02T01:34:41.702Z,15.22
2022-11-02T01:37:09.368Z,15.22
2022-11-02T01:39:37.116Z,15.33
2022-11-02T01:42:05.176Z,15.59
2022-11-02T01:44:35.557Z,15.60
2022-11-02T01:47:07.116Z,15.21
2022-11-02T01:49:37.303Z,15.30
2022-11-02T01:52:08.393Z,15.27
2022-11-02T01:54:39.036Z,15.08
2022-11-02T01:57:08.980Z,14.99
2022-11-02T01:59:41.428Z,15.06
2022-11-02T02:02:15.383Z,14.86
2022-11-02T02:04:43.788Z,14.67
2022-11-02T02:07:11.885Z,14.82
2022-11-02T02:09:39.524Z,14.96
2022-11-02T02:12:07.715Z,14.60
2022-11-02T02:14:35.760Z,14.83
2022-11-02T02:17:30.805Z,14.75
2022-11-02T02:20:01.826Z,15.01
2022-11-02T02:23:06.042Z,15.17
2022-11-02T02:25:53.443Z,14.65
2022-11-02T02:28:25.977Z,14.45
2022-11-02T02:30:57.442Z,14.51
2022-11-02T02:33:30.639Z,14.20
2022-11-02T02:36:00.727Z,14.64
2022-11-02T02:38:31.931Z,13.58
2022-11-02T02:41:07.783Z,14.03
2022-11-02T02:43:40.675Z,13.96
2022-11-02T02:46:10.605Z,13.86
2022-11-02T02:48:40.547Z,13.90
2022-11-02T02:51:10.761Z,13.92
2022-11-02T02:53:41.809Z,13.93
2022-11-02T02:56:10.732Z,13.38
2022-11-02T02:58:41.304Z,13.36
2022-11-02T03:01:12.365Z,13.45
2022-11-02T03:03:41.899Z,13.27
2022-11-02T03:06:17.407Z,13.06
2022-11-02T03:08:49.748Z,13.13
2022-11-02T03:11:19.231Z,13.10
2022-11-02T03:13:58.971Z,13.59
2022-11-02T03:16:39.853Z,13.32
2022-11-02T03:19:16.725Z,13.37
2022-11-02T03:21:45.512Z,13.50
2022-11-02T03:24:16.115Z,12.84
2022-11-02T03:26:48.737Z,13.33
2022-11-02T03:29:19.728Z,13.46
2022-11-02T03:31:51.196Z,13.17
2022-11-02T03:34:24.493Z,13.16
2022-11-02T03:36:56.016Z,13.29
2022-11-02T03:39:27.954Z,13.10
2022-11-02T03:41:56.475Z,12.91
2022-11-02T03:44:27.079Z,12.52
2022-11-02T03:46:59.583Z,12.95
2022-11-02T03:49:28.268Z,12.69
2022-11-02T03:51:57.283Z,12.89
2022-11-02T03:54:31.834Z,12.53
2022-11-02T03:57:00.845Z,12.65
2022-11-02T03:59:32.868Z,12.15
2022-11-02T04:02:01.116Z,12.64
2022-11-02T04:04:28.927Z,12.49
2022-11-02T04:06:56.933Z,12.46
2022-11-02T04:09:24.605Z,12.31
2022-11-02T04:12:21.506Z,12.28
2022-11-02T04:14:50.541Z,12.51
2022-11-02T04:17:35.878Z,12.54
2022-11-02T04:20:03.576Z,12.36
2022-11-02T04:22:49.091Z,12.61
2022-11-02T04:25:21.865Z,12.20
2022-11-02T04:27:50.921Z,12.34
2022-11-02T04:30:21.151Z,12.16
2022-11-02T04:33:07.420Z,12.38
2022-11-02T04:35:36.144Z,12.46
2022-11-02T04:38:21.433Z,12.32
2022-11-02T04:40:51.032Z,12.46
2022-11-02T04:43:18.739Z,12.17
2022-11-02T04:45:47.742Z,12.34
2022-11-02T04:48:15.409Z,12.30
2022-11-02T04:50:43.093Z,12.35
2022-11-02T04:53:10.755Z,12.28
2022-11-02T04:55:38.407Z,12.24
2022-11-02T04:58:06.331Z,12.46
2022-11-02T05:00:34.236Z,12.26
2022-11-02T05:03:05.703Z,12.59
2022-11-02T05:05:35.905Z,12.62
2022-11-02T05:08:03.740Z,12.80
2022-11-02T05:10:31.480Z,12.53
2022-11-02T05:12:59.274Z,12.75
2022-11-02T05:15:27.203Z,12.86
2022-11-02T05:17:55.087Z,12.75
2022-11-02T05:20:24.172Z,13.12
2022-11-02T05:22:51.844Z,13.10
2022-11-02T05:25:19.553Z,13.50
2022-11-02T05:27:47.187Z,13.04
2022-11-02T05:30:14.943Z,13.22
2022-11-02T05:32:42.575Z,13.38
2022-11-02T05:35:10.486Z,13.59
2022-11-02T05:37:39.524Z,13.56
2022-11-02T05:40:08.691Z,13.10
2022-11-02T05:42:36.369Z,13.71
2022-11-02T05:45:04.264Z,13.55
2022-11-02T05:47:31.956Z,13.75
2022-11-02T05:49:59.595Z,13.46
2022-11-02T05:52:27.257Z,13.46
2022-11-02T05:54:56.255Z,13.84
2022-11-02T05:57:23.956Z,13.22
2022-11-02T05:59:51.601Z,13.79
2022-11-02T06:02:23.258Z,13.47
2022-11-02T06:04:53.152Z,13.66
2022-11-02T06:07:20.801Z,13.45
2022-11-02T06:09:48.456Z,13.57
2022-11-02T06:12:17.495Z,13.71
2022-11-02T06:14:45.437Z,13.75
2022-11-02T06:17:13.109Z,13.70
2022-11-02T06:19:40.763Z,14.02
2022-11-02T06:22:08.455Z,13.89
2022-11-02T06:24:36.145Z,13.50
2022-11-02T06:27:03.849Z,13.57
2022-11-02T06:29:32.878Z,13.40
2022-11-02T06:32:00.541Z,13.72
2022-11-02T06:34:28.216Z,13.11
2022-11-02T06:36:55.903Z,13.73
2022-11-02T06:39:24.725Z,13.36
2022-11-02T06:41:52.426Z,13.53
2022-11-02T06:44:20.090Z,13.82
2022-11-02T06:46:49.122Z,13.22
2022-11-02T06:49:16.791Z,13.55
2022-11-02T06:51:44.446Z,13.71
2022-11-02T06:54:12.147Z,13.64
2022-11-02T06:56:39.784Z,13.32
2022-11-02T06:59:07.436Z,13.75
2022-11-02T07:01:36.128Z,13.28
2022-11-02T07:04:05.577Z,13.32
2022-11-02T07:06:33.463Z,13.46
2022-11-02T07:09:01.207Z,14.04
2022-11-02T07:11:28.865Z,13.20
2022-11-02T07:13:56.523Z,13.76
2022-11-02T07:16:25.167Z,13.01
2022-11-02T07:18:52.795Z,13.61
2022-11-02T07:21:21.868Z,13.24
2022-11-02T07:23:49.497Z,13.37
2022-11-02T07:26:17.204Z,12.98
2022-11-02T07:28:46.981Z,13.12
2022-11-02T07:31:14.679Z,12.98
2022-11-02T07:33:42.343Z,13.11
2022-11-02T07:36:10.576Z,13.31
2022-11-02T07:38:39.983Z,13.40
2022-11-02T07:41:07.676Z,13.56
2022-11-02T07:43:35.957Z,13.35
2022-11-02T07:46:06.046Z,13.09
2022-11-02T07:48:35.731Z,12.91
2022-11-02T07:51:03.372Z,12.82
2022-11-02T07:53:31.051Z,13.20
2022-11-02T07:56:00.945Z,12.86
2022-11-02T07:58:28.649Z,13.60
2022-11-02T08:00:59.909Z,13.86
2022-11-02T08:03:28.600Z,13.99
2022-11-02T08:05:56.383Z,14.04
2022-11-02T08:08:25.332Z,13.95
2022-11-02T08:10:53.773Z,13.75
2022-11-02T08:13:25.959Z,13.67
2022-11-02T08:15:54.808Z,14.00
2022-11-02T08:18:23.899Z,14.14
2022-11-02T08:20:52.089Z,14.48
2022-11-02T08:23:21.079Z,13.66
2022-11-02T08:25:50.332Z,14.22
2022-11-02T08:28:19.930Z,14.22
2022-11-02T08:30:48.972Z,13.94
2022-11-02T08:33:18.425Z,14.19
2022-11-02T08:35:47.365Z,13.44
2022-11-02T08:38:15.552Z,13.74
2022-11-02T08:40:43.536Z,13.30
2022-11-02T08:43:12.596Z,13.65
2022-11-02T08:48:30.490Z,14.17
2022-11-02T08:50:58.181Z,14.03
2022-11-02T08:53:25.815Z,13.75
2022-11-02T08:55:53.545Z,13.63
2022-11-02T08:58:21.362Z,13.92
2022-11-02T09:00:49.039Z,13.73
2022-11-02T09:03:20.619Z,14.01
2022-11-02T09:05:58.090Z,13.37
2022-11-02T09:08:26.026Z,13.51
2022-11-02T09:10:53.837Z,14.38
2022-11-02T09:13:25.323Z,14.62
2022-11-02T09:15:54.487Z,14.17
2022-11-02T09:18:22.533Z,14.68
2022-11-02T09:20:51.252Z,14.35
2022-11-02T09:23:21.463Z,14.56
2022-11-02T09:25:49.225Z,14.86
2022-11-02T09:28:17.051Z,14.87
2022-11-02T09:30:44.975Z,14.42
2022-11-02T09:33:13.429Z,14.82
2022-11-02T09:35:45.078Z,14.74
2022-11-02T09:38:12.959Z,14.50
2022-11-02T09:40:45.693Z,14.69
2022-11-02T09:43:20.587Z,14.82
2022-11-02T09:45:54.687Z,14.52
2022-11-02T09:48:28.592Z,14.31
2022-11-02T09:51:02.100Z,14.09
2022-11-02T09:53:36.669Z,14.33
2022-11-02T09:56:06.839Z,14.94
2022-11-02T09:58:38.348Z,14.82
2022-11-02T10:01:13.138Z,14.82
2022-11-02T10:03:50.199Z,14.50
2022-11-02T10:06:20.972Z,14.19
2022-11-02T10:08:53.517Z,13.58
2022-11-02T10:11:33.228Z,14.63
2022-11-02T10:14:02.862Z,14.18
2022-11-02T10:16:35.787Z,14.21
2022-11-02T10:19:05.736Z,14.64
2022-11-02T10:21:34.707Z,14.07
2022-11-02T10:24:09.167Z,13.97
2022-11-02T10:26:43.193Z,14.32
2022-11-02T10:29:17.280Z,13.95
2022-11-02T10:31:45.119Z,13.95
2022-11-02T10:34:22.812Z,14.25
2022-11-02T10:36:57.042Z,14.17
2022-11-02T10:39:32.200Z,14.44
2022-11-02T10:42:10.638Z,14.46
2022-11-02T10:44:51.425Z,14.68
2022-11-02T10:47:20.156Z,14.76
2022-11-02T10:50:15.417Z,15.47
2022-11-02T10:52:45.110Z,15.15
2022-11-02T10:55:20.733Z,14.62
2022-11-02T10:57:50.085Z,14.67
2022-11-02T11:00:29.507Z,15.13
2022-11-02T11:03:05.187Z,15.23
2022-11-02T11:05:33.154Z,14.77
2022-11-02T11:08:01.698Z,15.31
2022-11-02T11:10:30.120Z,15.16
2022-11-02T11:12:59.223Z,15.03
2022-11-02T11:21:02.592Z,14.63
2022-11-02T11:23:30.292Z,14.84
2022-11-02T11:25:59.789Z,15.29
2022-11-02T11:28:31.740Z,15.46
2022-11-02T11:31:05.369Z,15.42
2022-11-02T11:33:33.868Z,14.99
2022-11-02T11:36:01.707Z,15.17
2022-11-02T11:38:29.423Z,14.66
2022-11-02T11:40:59.087Z,15.30
2022-11-02T11:43:30.358Z,15.54
2022-11-02T11:46:05.362Z,15.04
2022-11-02T11:48:37.491Z,15.53
2022-11-02T11:51:05.994Z,15.41
2022-11-02T11:53:35.439Z,15.77
2022-11-02T11:56:03.085Z,14.87
2022-11-02T11:58:32.924Z,15.23
2022-11-02T12:01:09.385Z,15.47
2022-11-02T12:03:51.585Z,15.27
2022-11-02T12:06:25.160Z,15.32
2022-11-02T12:08:59.007Z,15.26
2022-11-02T12:11:43.883Z,15.26
2022-11-02T12:14:21.099Z,15.84
2022-11-02T12:17:19.443Z,15.87
2022-11-02T12:19:58.864Z,15.85
2022-11-02T12:22:35.206Z,14.90
2022-11-02T12:25:16.806Z,14.99
2022-11-02T12:27:51.999Z,14.36
2022-11-02T12:30:22.173Z,15.39
2022-11-02T12:32:58.700Z,15.85
2022-11-02T12:35:36.956Z,15.09
2022-11-02T12:38:28.653Z,15.13
2022-11-02T12:41:03.169Z,15.23
2022-11-02T12:43:41.271Z,15.15
2022-11-02T12:46:20.601Z,15.88
2022-11-02T12:48:54.879Z,15.34
2022-11-02T12:51:25.128Z,15.31
2022-11-02T12:53:56.704Z,15.26
2022-11-02T12:56:26.872Z,15.35
2022-11-02T12:58:55.138Z,15.18
2022-11-02T13:01:28.399Z,15.73
2022-11-02T13:03:59.109Z,16.32
2022-11-02T13:06:30.002Z,15.97
2022-11-02T13:08:59.555Z,16.20
2022-11-02T13:11:32.203Z,16.27
2022-11-02T13:14:00.564Z,16.48
2022-11-02T13:16:36.836Z,16.55
2022-11-02T13:19:05.173Z,16.25
2022-11-02T13:21:38.577Z,16.77
2022-11-02T13:24:14.602Z,15.72
2022-11-02T13:26:44.362Z,15.79
2022-11-02T13:29:16.977Z,15.83
2022-11-02T13:31:48.638Z,15.62
2022-11-02T13:34:20.365Z,16.12
2022-11-02T13:36:48.062Z,16.58
2022-11-02T13:39:18.668Z,16.38
2022-11-02T13:42:18.100Z,16.01
2022-11-02T13:45:03.125Z,15.84
2022-11-02T13:48:06.673Z,15.98
2022-11-02T13:50:36.067Z,15.91
2022-11-02T13:53:05.973Z,16.24
2022-11-02T13:55:44.515Z,16.42
2022-11-02T13:58:23.092Z,16.22
2022-11-02T14:00:51.215Z,16.38
2022-11-02T14:03:23.264Z,16.76
2022-11-02T14:05:53.729Z,16.53
2022-11-02T14:08:30.848Z,16.22
2022-11-02T14:11:26.561Z,16.16
2022-11-02T14:14:22.572Z,16.42
2022-11-02T14:17:00.638Z,16.67
2022-11-02T14:19:33.632Z,16.33
2022-11-02T14:22:10.573Z,16.03
2022-11-02T14:25:06.638Z,15.97
2022-11-02T14:27:34.887Z,16.20
2022-11-02T14:30:02.729Z,15.61
2022-11-02T14:32:41.224Z,15.57
2022-11-02T14:35:23.466Z,16.07
2022-11-02T14:38:05.637Z,15.84
2022-11-02T14:40:41.867Z,15.95
2022-11-02T14:43:39.561Z,15.86
2022-11-02T14:46:09.660Z,15.60
2022-11-02T14:48:46.224Z,15.65
2022-11-02T14:51:19.255Z,15.68
2022-11-02T14:53:47.038Z,15.58
2022-11-02T14:56:14.703Z,15.21
2022-11-02T14:58:50.283Z,14.93
2022-11-02T15:01:18.561Z,15.28
2022-11-02T15:03:48.233Z,15.02
2022-11-02T15:06:21.273Z,15.35
2022-11-02T15:08:54.792Z,15.21
2022-11-02T15:11:44.964Z,15.29
2022-11-02T15:14:49.782Z,15.26
2022-11-02T15:17:55.044Z,15.34
2022-11-02T15:20:31.232Z,15.39
2022-11-02T15:23:30.644Z,14.87
2022-11-02T15:25:59.977Z,15.04
2022-11-02T15:28:29.697Z,14.94
2022-11-02T15:30:59.440Z,14.71
2022-11-02T15:33:36.839Z,14.97
2022-11-02T15:36:06.510Z,14.59
2022-11-02T15:38:40.042Z,14.89
2022-11-02T15:41:18.123Z,14.88
2022-11-02T15:44:16.376Z,14.81
2022-11-02T15:46:53.528Z,14.55
2022-11-02T15:49:31.885Z,14.28
2022-11-02T15:52:04.085Z,14.15
2022-11-02T15:54:49.440Z,14.01
2022-11-02T15:57:25.769Z,14.03
2022-11-02T16:00:15.566Z,14.11
2022-11-02T16:02:45.395Z,14.04
2022-11-02T16:05:21.873Z,13.93
2022-11-02T16:08:09.577Z,13.91
2022-11-02T16:10:39.252Z,13.68
2022-11-02T16:13:16.848Z,13.70
2022-11-02T16:15:45.035Z,13.67
2022-11-02T16:18:31.343Z,13.54
2022-11-02T16:21:01.991Z,13.54
2022-11-02T16:23:31.283Z,13.32
2022-11-02T16:26:01.427Z,13.13
2022-11-02T16:28:31.043Z,13.15
2022-11-02T16:31:06.929Z,13.30
2022-11-02T16:33:40.375Z,13.26
2022-11-02T16:36:08.706Z,13.15
2022-11-02T16:38:36.952Z,13.11
2022-11-02T16:41:08.795Z,13.26
2022-11-02T16:43:41.627Z,13.28
2022-11-02T16:46:15.552Z,13.16
2022-11-02T16:49:03.150Z,13.35
2022-11-02T16:51:31.543Z,13.28
2022-11-02T16:54:18.450Z,13.43
2022-11-02T16:56:49.675Z,13.27
2022-11-02T16:59:17.365Z,13.23
2022-11-02T17:01:45.620Z,13.20
2022-11-02T17:04:19.536Z,13.15
2022-11-02T17:06:47.531Z,13.31
2022-11-02T17:09:26.797Z,13.23
2022-11-02T17:11:57.969Z,13.42
2022-11-02T17:14:26.696Z,13.53
2022-11-02T17:16:59.087Z,13.50
2022-11-02T17:19:47.538Z,13.52
2022-11-02T17:22:24.771Z,13.63
2022-11-02T17:25:05.209Z,13.24
2022-11-02T17:27:39.194Z,13.04
2022-11-02T17:30:43.692Z,13.17
2022-11-02T17:33:17.231Z,12.99
2022-11-02T17:35:49.072Z,13.24
2022-11-02T17:38:16.874Z,13.33
2022-11-02T17:40:44.614Z,12.97
2022-11-02T17:43:12.665Z,13.10
2022-11-02T17:45:40.455Z,13.21
2022-11-02T17:48:10.762Z,13.43
2022-11-02T17:50:40.232Z,13.53
2022-11-02T17:53:11.727Z,13.56
2022-11-02T17:55:39.469Z,13.66
2022-11-02T17:58:07.872Z,13.51
2022-11-02T18:00:37.704Z,13.63
2022-11-02T18:03:05.943Z,13.41
2022-11-02T18:05:36.562Z,13.46
2022-11-02T18:08:06.695Z,13.19
2022-11-02T18:10:36.504Z,13.41
2022-11-02T18:13:04.905Z,13.25
2022-11-02T18:15:34.238Z,13.40
2022-11-02T18:18:03.633Z,13.43
2022-11-02T18:20:32.908Z,13.64
2022-11-02T18:23:02.920Z,13.57
2022-11-02T18:25:31.267Z,13.48
2022-11-02T18:27:59.516Z,13.58
2022-11-02T18:30:27.796Z,13.70
2022-11-02T18:32:56.422Z,13.51
2022-11-02T18:35:26.263Z,13.49
2022-11-02T18:37:53.927Z,13.43
2022-11-02T18:40:21.726Z,13.59
2022-11-02T18:42:49.391Z,13.57
2022-11-02T18:45:17.526Z,13.61
2022-11-02T18:47:45.262Z,13.63
2022-11-02T18:50:14.107Z,13.46
2022-11-02T18:52:48.811Z,13.54
2022-11-02T18:55:16.503Z,13.64
2022-11-02T18:57:45.364Z,13.57
2022-11-02T19:00:14.127Z,13.35
2022-11-02T19:02:41.798Z,13.50
2022-11-02T19:05:29.876Z,13.51
2022-11-02T19:08:19.041Z,13.56
2022-11-02T19:10:47.624Z,13.48
2022-11-02T19:13:15.482Z,13.67
2022-11-02T19:15:43.153Z,13.45
2022-11-02T19:18:11.135Z,13.23
2022-11-02T19:20:38.952Z,13.44
2022-11-02T19:23:08.579Z,13.47
2022-11-02T19:25:36.420Z,13.56
2022-11-02T19:28:04.924Z,13.55
2022-11-02T19:30:32.922Z,13.21
2022-11-02T19:33:00.608Z,13.44
2022-11-02T19:35:28.262Z,13.33
2022-11-02T19:37:58.205Z,13.40
2022-11-02T19:40:27.303Z,13.42
2022-11-02T19:42:54.965Z,13.21
2022-11-02T19:45:22.616Z,13.47
2022-11-02T19:47:50.447Z,13.23
2022-11-02T19:50:18.272Z,13.32
2022-11-02T19:52:46.454Z,13.31
2022-11-02T19:55:14.169Z,13.46
2022-11-02T19:57:43.959Z,13.23
2022-11-02T20:00:12.815Z,13.40
2022-11-02T20:02:40.566Z,13.64
2022-11-02T20:05:09.164Z,13.35
2022-11-02T20:07:36.830Z,13.52
2022-11-02T20:10:04.855Z,13.42
2022-11-02T20:12:34.108Z,13.36
2022-11-02T20:15:03.347Z,13.40
2022-11-02T20:17:38.153Z,13.49
2022-11-02T20:20:14.528Z,13.43
2022-11-02T20:22:43.180Z,13.81
2022-11-02T20:25:10.970Z,12.79
2022-11-02T20:27:40.687Z,13.62
2022-11-02T20:30:10.772Z,13.56
2022-11-02T20:32:38.570Z,12.94
2022-11-02T20:35:12.487Z,13.41
2022-11-02T20:37:41.250Z,13.28
2022-11-02T20:40:10.025Z,13.19
2022-11-02T20:42:37.693Z,13.35
2022-11-02T20:45:05.993Z,12.83
2022-11-02T20:47:35.322Z,13.38
2022-11-02T20:50:02.980Z,13.30
2022-11-02T20:52:30.654Z,13.40
2022-11-02T20:54:58.298Z,13.43
2022-11-02T20:57:28.271Z,13.54
2022-11-02T20:59:55.935Z,13.56
2022-11-02T21:02:24.681Z,13.22
2022-11-02T21:04:53.786Z,13.09
2022-11-02T21:07:21.439Z,13.42
2022-11-02T21:09:49.153Z,13.54
2022-11-02T21:12:33.605Z,13.52
2022-11-02T21:15:01.329Z,13.66
2022-11-02T21:17:29.355Z,13.52
2022-11-02T21:20:14.246Z,13.23
2022-11-02T21:22:46.036Z,13.38
2022-11-02T21:25:13.703Z,13.29
2022-11-02T21:27:41.376Z,13.53
2022-11-02T21:30:10.309Z,13.49
2022-11-02T21:32:37.930Z,13.16
2022-11-02T21:35:07.940Z,13.33
2022-11-02T21:37:35.628Z,13.39
2022-11-02T21:40:04.180Z,13.31
2022-11-02T21:42:31.838Z,13.50
2022-11-02T21:44:59.532Z,13.44
2022-11-02T21:47:34.019Z,13.33
2022-11-02T21:50:02.289Z,13.43
2022-11-02T21:52:31.296Z,13.01
2022-11-02T21:54:58.957Z,13.48
2022-11-02T21:57:26.606Z,13.44
2022-11-02T21:59:54.298Z,13.23
2022-11-02T22:02:22.279Z,13.51
2022-11-02T22:04:53.389Z,13.46
2022-11-02T22:07:21.049Z,13.39
2022-11-02T22:09:50.332Z,13.46
2022-11-02T22:12:35.398Z,13.71
2022-11-02T22:15:03.107Z,13.61
2022-11-02T22:20:18.459Z,13.45
2022-11-02T22:22:46.352Z,13.42
2022-11-02T22:25:15.363Z,13.52
2022-11-02T22:27:43.008Z,13.73
2022-11-02T22:30:11.679Z,13.66
2022-11-02T22:32:39.434Z,13.55
2022-11-02T22:35:07.722Z,13.45
2022-11-02T22:37:52.986Z,13.61
2022-11-02T22:40:21.992Z,13.44
2022-11-02T22:42:54.593Z,13.80
2022-11-02T22:45:22.252Z,13.57
2022-11-02T22:47:50.001Z,13.74
2022-11-02T22:50:17.620Z,13.64
2022-11-02T22:52:45.279Z,13.69
2022-11-02T22:55:12.997Z,13.84
2022-11-02T22:57:43.089Z,13.62
2022-11-02T23:00:12.344Z,13.61
2022-11-02T23:02:39.961Z,13.55
2022-11-02T23:05:08.208Z,13.90
2022-11-02T23:07:35.911Z,13.55
2022-11-02T23:10:23.554Z,13.62
2022-11-02T23:12:51.721Z,13.58
2022-11-02T23:15:19.382Z,13.84
2022-11-02T23:17:49.239Z,13.73
2022-11-02T23:20:16.139Z,13.96
2022-11-02T23:23:01.316Z,13.40
2022-11-02T23:25:28.936Z,13.84
2022-11-02T23:28:16.631Z,13.51
2022-11-02T23:31:02.248Z,13.72
2022-11-02T23:33:31.709Z,13.93
2022-11-02T23:36:12.137Z,13.56
2022-11-02T23:38:57.451Z,13.77
2022-11-02T23:41:26.004Z,13.88
2022-11-02T23:44:11.361Z,13.54
2022-11-02T23:46:39.841Z,13.76
2022-11-02T23:49:07.491Z,14.00
2022-11-02T23:51:55.028Z,13.64
2022-11-02T23:54:40.428Z,13.36
2022-11-02T23:57:08.113Z,13.70
2022-11-02T23:59:37.148Z,13.83
